sensor_id;sensor_type;location;lat;lon;timestamp;pressure;altitude;pressure_sealevel;temperature;humidity
47763;BME280;33526;42.690;23.322;2023-03-18T00:01:25;95475.88;;;2.05;81.15
47763;BME280;33526;42.690;23.322;2023-03-18T00:03:51;95473.13;;;2.01;81.05
47763;BME280;33526;42.690;23.322;2023-03-18T00:06:18;95467.63;;;1.98;80.07
47763;BME280;33526;42.690;23.322;2023-03-18T00:08:44;95470.41;;;1.98;80.83
47763;BME280;33526;42.690;23.322;2023-03-18T00:11:10;95467.69;;;1.90;80.97
47763;BME280;33526;42.690;23.322;2023-03-18T00:13:37;95474.03;;;1.87;81.49
47763;BME280;33526;42.690;23.322;2023-03-18T00:16:05;95470.06;;;1.88;81.30
47763;BME280;33526;42.690;23.322;2023-03-18T00:18:31;95452.00;;;1.80;81.87
47763;BME280;33526;42.690;23.322;2023-03-18T00:20:59;95454.75;;;1.80;81.52
47763;BME280;33526;42.690;23.322;2023-03-18T00:23:25;95453.19;;;1.79;82.01
47763;BME280;33526;42.690;23.322;2023-03-18T00:25:52;95450.06;;;1.70;81.09
47763;BME280;33526;42.690;23.322;2023-03-18T00:28:18;95459.91;;;1.67;81.60
47763;BME280;33526;42.690;23.322;2023-03-18T00:30:44;95451.69;;;1.57;81.59
47763;BME280;33526;42.690;23.322;2023-03-18T00:33:10;95454.06;;;1.58;81.11
47763;BME280;33526;42.690;23.322;2023-03-18T00:35:36;95455.28;;;1.50;81.09
47763;BME280;33526;42.690;23.322;2023-03-18T00:38:02;95443.47;;;1.49;81.91
47763;BME280;33526;42.690;23.322;2023-03-18T00:40:28;95436.44;;;1.34;82.02
47763;BME280;33526;42.690;23.322;2023-03-18T00:43:07;95444.38;;;1.21;82.69
47763;BME280;33526;42.690;23.322;2023-03-18T00:45:35;95434.16;;;1.18;83.04
47763;BME280;33526;42.690;23.322;2023-03-18T00:48:01;95429.41;;;1.19;83.09
47763;BME280;33526;42.690;23.322;2023-03-18T00:50:26;95425.47;;;1.20;83.11
47763;BME280;33526;42.690;23.322;2023-03-18T00:52:53;95426.31;;;1.09;83.73
47763;BME280;33526;42.690;23.322;2023-03-18T00:55:19;95414.91;;;1.00;84.11
47763;BME280;33526;42.690;23.322;2023-03-18T00:57:44;95416.91;;;0.96;84.70
47763;BME280;33526;42.690;23.322;2023-03-18T01:00:10;95415.28;;;1.09;84.88
47763;BME280;33526;42.690;23.322;2023-03-18T01:02:35;95411.75;;;1.05;84.47
47763;BME280;33526;42.690;23.322;2023-03-18T01:05:01;95412.91;;;1.11;84.84
47763;BME280;33526;42.690;23.322;2023-03-18T01:07:28;95416.06;;;1.13;86.08
47763;BME280;33526;42.690;23.322;2023-03-18T01:09:53;95414.50;;;1.12;85.40
47763;BME280;33526;42.690;23.322;2023-03-18T01:12:18;95408.97;;;1.12;85.13
47763;BME280;33526;42.690;23.322;2023-03-18T01:14:44;95406.63;;;1.11;84.92
47763;BME280;33526;42.690;23.322;2023-03-18T01:17:09;95402.72;;;1.01;85.46
47763;BME280;33526;42.690;23.322;2023-03-18T01:19:35;95412.16;;;1.04;86.04
47763;BME280;33526;42.690;23.322;2023-03-18T01:22:01;95407.44;;;0.97;85.75
47763;BME280;33526;42.690;23.322;2023-03-18T01:24:27;95403.50;;;1.05;85.86
47763;BME280;33526;42.690;23.322;2023-03-18T01:26:53;95398.78;;;1.02;85.40
47763;BME280;33526;42.690;23.322;2023-03-18T01:29:20;95400.38;;;0.96;85.84
47763;BME280;33526;42.690;23.322;2023-03-18T01:31:47;95405.50;;;0.94;85.71
47763;BME280;33526;42.690;23.322;2023-03-18T01:34:12;95399.59;;;0.95;86.64
47763;BME280;33526;42.690;23.322;2023-03-18T01:36:38;95389.38;;;0.96;86.58
47763;BME280;33526;42.690;23.322;2023-03-18T01:39:04;95398.78;;;0.99;86.26
47763;BME280;33526;42.690;23.322;2023-03-18T01:41:32;95394.09;;;0.99;86.36
47763;BME280;33526;42.690;23.322;2023-03-18T01:43:57;95400.38;;;1.03;85.85
47763;BME280;33526;42.690;23.322;2023-03-18T01:48:55;95391.75;;;0.87;84.97
47763;BME280;33526;42.690;23.322;2023-03-18T01:51:20;95401.22;;;0.71;85.78
47763;BME280;33526;42.690;23.322;2023-03-18T01:53:48;95386.31;;;0.62;86.20
47763;BME280;33526;42.690;23.322;2023-03-18T01:56:14;95390.25;;;0.57;87.17
47763;BME280;33526;42.690;23.322;2023-03-18T01:58:44;95387.91;;;0.45;88.08
47763;BME280;33526;42.690;23.322;2023-03-18T02:01:17;95377.69;;;0.49;87.58
47763;BME280;33526;42.690;23.322;2023-03-18T02:03:44;95382.38;;;0.48;87.84
47763;BME280;33526;42.690;23.322;2023-03-18T02:06:10;95385.13;;;0.55;87.64
47763;BME280;33526;42.690;23.322;2023-03-18T02:08:37;95377.69;;;0.56;87.55
47763;BME280;33526;42.690;23.322;2023-03-18T02:11:03;95376.88;;;0.59;87.73
47763;BME280;33526;42.690;23.322;2023-03-18T02:13:29;95367.06;;;0.62;87.77
47763;BME280;33526;42.690;23.322;2023-03-18T02:15:57;95376.88;;;0.59;87.58
47763;BME280;33526;42.690;23.322;2023-03-18T02:18:47;95378.44;;;0.67;88.15
47763;BME280;33526;42.690;23.322;2023-03-18T02:24:10;95373.69;;;0.71;86.72
47763;BME280;33526;42.690;23.322;2023-03-18T02:29:08;95374.47;;;0.68;86.38
47763;BME280;33526;42.690;23.322;2023-03-18T02:31:36;95374.47;;;0.68;86.45
47763;BME280;33526;42.690;23.322;2023-03-18T02:34:02;95375.31;;;0.65;86.73
47763;BME280;33526;42.690;23.322;2023-03-18T02:36:29;95380.81;;;0.65;87.25
47763;BME280;33526;42.690;23.322;2023-03-18T02:38:56;95380.78;;;0.69;87.38
47763;BME280;33526;42.690;23.322;2023-03-18T02:41:23;95376.06;;;0.73;87.59
47763;BME280;33526;42.690;23.322;2023-03-18T02:43:49;95380.41;;;0.70;86.81
47763;BME280;33526;42.690;23.322;2023-03-18T02:48:54;95372.97;;;0.49;86.12
47763;BME280;33526;42.690;23.322;2023-03-18T02:51:20;95368.25;;;0.43;86.44
47763;BME280;33526;42.690;23.322;2023-03-18T02:53:46;95373.00;;;0.28;87.24
47763;BME280;33526;42.690;23.322;2023-03-18T02:56:11;95370.25;;;0.17;87.56
47763;BME280;33526;42.690;23.322;2023-03-18T02:58:36;95380.47;;;0.09;88.07
47763;BME280;33526;42.690;23.322;2023-03-18T03:01:02;95374.97;;;0.06;88.57
47763;BME280;33526;42.690;23.322;2023-03-18T03:03:28;95369.09;;;-0.04;89.15
47763;BME280;33526;42.690;23.322;2023-03-18T03:05:54;95377.72;;;-0.12;89.83
47763;BME280;33526;42.690;23.322;2023-03-18T03:08:19;95372.97;;;-0.26;90.35
47763;BME280;33526;42.690;23.322;2023-03-18T03:10:45;95380.06;;;-0.29;90.75
47763;BME280;33526;42.690;23.322;2023-03-18T03:13:10;95369.06;;;-0.32;91.15
47763;BME280;33526;42.690;23.322;2023-03-18T03:15:37;95369.06;;;-0.36;91.47
47763;BME280;33526;42.690;23.322;2023-03-18T03:18:02;95383.56;;;-0.39;91.48
47763;BME280;33526;42.690;23.322;2023-03-18T03:20:28;95373.75;;;-0.40;91.45
47763;BME280;33526;42.690;23.322;2023-03-18T03:22:56;95385.91;;;-0.45;91.63
47763;BME280;33526;42.690;23.322;2023-03-18T03:25:21;95382.38;;;-0.45;92.14
47763;BME280;33526;42.690;23.322;2023-03-18T03:27:47;95387.88;;;-0.42;92.33
47763;BME280;33526;42.690;23.322;2023-03-18T03:30:14;95390.22;;;-0.44;92.45
47763;BME280;33526;42.690;23.322;2023-03-18T03:32:40;95384.72;;;-0.40;92.48
47763;BME280;33526;42.690;23.322;2023-03-18T03:35:06;95392.97;;;-0.44;92.30
47763;BME280;33526;42.690;23.322;2023-03-18T03:37:33;95387.09;;;-0.42;92.55
47763;BME280;33526;42.690;23.322;2023-03-18T03:39:59;95394.19;;;-0.37;92.34
47763;BME280;33526;42.690;23.322;2023-03-18T03:42:24;95397.31;;;-0.35;92.12
47763;BME280;33526;42.690;23.322;2023-03-18T03:44:50;95398.09;;;-0.39;92.40
47763;BME280;33526;42.690;23.322;2023-03-18T03:47:15;95391.03;;;-0.40;92.35
47763;BME280;33526;42.690;23.322;2023-03-18T03:49:40;95399.28;;;-0.40;92.12
47763;BME280;33526;42.690;23.322;2023-03-18T03:52:06;95390.22;;;-0.44;92.60
47763;BME280;33526;42.690;23.322;2023-03-18T03:54:33;95398.09;;;-0.39;92.78
47763;BME280;33526;42.690;23.322;2023-03-18T03:56:58;95398.84;;;-0.42;92.50
47763;BME280;33526;42.690;23.322;2023-03-18T03:59:24;95392.56;;;-0.46;92.65
47763;BME280;33526;42.690;23.322;2023-03-18T04:01:50;95404.34;;;-0.38;92.56
47763;BME280;33526;42.690;23.322;2023-03-18T04:04:16;95400.84;;;-0.39;92.93
47763;BME280;33526;42.690;23.322;2023-03-18T04:06:41;95401.63;;;-0.34;92.69
47763;BME280;33526;42.690;23.322;2023-03-18T04:09:06;95398.84;;;-0.42;92.58
47763;BME280;33526;42.690;23.322;2023-03-18T04:11:32;95402.00;;;-0.47;92.70
47763;BME280;33526;42.690;23.322;2023-03-18T04:13:57;95406.69;;;-0.47;92.71
47763;BME280;33526;42.690;23.322;2023-03-18T04:16:22;95412.19;;;-0.44;92.67
47763;BME280;33526;42.690;23.322;2023-03-18T04:18:48;95413.00;;;-0.47;92.64
47763;BME280;33526;42.690;23.322;2023-03-18T04:21:13;95411.41;;;-0.48;92.72
47763;BME280;33526;42.690;23.322;2023-03-18T04:23:38;95418.50;;;-0.47;92.16
47763;BME280;33526;42.690;23.322;2023-03-18T04:26:04;95427.91;;;-0.48;91.86
47763;BME280;33526;42.690;23.322;2023-03-18T04:28:30;95429.47;;;-0.54;91.42
47763;BME280;33526;42.690;23.322;2023-03-18T04:30:56;95423.22;;;-0.36;90.84
47763;BME280;33526;42.690;23.322;2023-03-18T04:33:22;95438.94;;;-0.33;89.08
47763;BME280;33526;42.690;23.322;2023-03-18T04:35:47;95432.66;;;-0.27;87.93
47763;BME280;33526;42.690;23.322;2023-03-18T04:38:13;95436.59;;;-0.17;87.54
47763;BME280;33526;42.690;23.322;2023-03-18T04:40:39;95442.09;;;-0.21;86.23
47763;BME280;33526;42.690;23.322;2023-03-18T04:43:04;95438.56;;;-0.14;86.27
47763;BME280;33526;42.690;23.322;2023-03-18T04:45:30;95440.53;;;-0.18;86.04
47763;BME280;33526;42.690;23.322;2023-03-18T04:47:55;95434.25;;;-0.08;85.64
47763;BME280;33526;42.690;23.322;2023-03-18T04:50:22;95452.34;;;0.01;85.58
47763;BME280;33526;42.690;23.322;2023-03-18T04:52:48;95445.28;;;0.03;84.86
47763;BME280;33526;42.690;23.322;2023-03-18T04:55:14;95445.28;;;0.21;84.75
47763;BME280;33526;42.690;23.322;2023-03-18T04:57:41;95449.22;;;0.20;83.48
47763;BME280;33526;42.690;23.322;2023-03-18T05:00:10;95444.91;;;0.41;83.19
47763;BME280;33526;42.690;23.322;2023-03-18T05:02:36;95445.28;;;0.61;82.75
47763;BME280;33526;42.690;23.322;2023-03-18T05:05:02;95465.75;;;0.67;81.70
47763;BME280;33526;42.690;23.322;2023-03-18T05:07:27;95446.47;;;0.70;80.96
47763;BME280;33526;42.690;23.322;2023-03-18T05:09:53;95447.22;;;0.74;79.84
47763;BME280;33526;42.690;23.322;2023-03-18T05:12:18;95446.47;;;0.70;79.32
47763;BME280;33526;42.690;23.322;2023-03-18T05:14:44;95450.38;;;0.69;79.10
47763;BME280;33526;42.690;23.322;2023-03-18T05:17:10;95438.22;;;0.49;79.33
47763;BME280;33526;42.690;23.322;2023-03-18T05:19:48;95441.75;;;0.46;80.01
47763;BME280;33526;42.690;23.322;2023-03-18T05:22:14;95441.38;;;0.44;80.43
47763;BME280;33526;42.690;23.322;2023-03-18T05:24:41;95438.22;;;0.42;80.06
47763;BME280;33526;42.690;23.322;2023-03-18T05:27:07;95445.28;;;0.53;80.43
47763;BME280;33526;42.690;23.322;2023-03-18T05:29:32;95442.16;;;0.51;79.92
47763;BME280;33526;42.690;23.322;2023-03-18T05:31:58;95440.16;;;0.48;80.47
47763;BME280;33526;42.690;23.322;2023-03-18T05:34:23;95435.88;;;0.51;80.11
47763;BME280;33526;42.690;23.322;2023-03-18T05:36:49;95435.88;;;0.54;80.83
47763;BME280;33526;42.690;23.322;2023-03-18T05:39:14;95431.91;;;0.59;80.33
47763;BME280;33526;42.690;23.322;2023-03-18T05:41:40;95428.38;;;0.69;80.34
47763;BME280;33526;42.690;23.322;2023-03-18T05:44:06;95436.59;;;0.84;79.91
47763;BME280;33526;42.690;23.322;2023-03-18T05:46:31;95443.25;;;0.97;78.79
47763;BME280;33526;42.690;23.322;2023-03-18T05:48:57;95449.94;;;1.03;78.87
47763;BME280;33526;42.690;23.322;2023-03-18T05:51:22;95443.66;;;0.99;79.18
47763;BME280;33526;42.690;23.322;2023-03-18T05:53:48;95448.41;;;0.81;79.61
47763;BME280;33526;42.690;23.322;2023-03-18T05:56:13;95457.06;;;0.61;80.50
47763;BME280;33526;42.690;23.322;2023-03-18T05:58:39;95462.56;;;0.50;81.42
47763;BME280;33526;42.690;23.322;2023-03-18T06:01:04;95461.00;;;0.31;81.96
47763;BME280;33526;42.690;23.322;2023-03-18T06:03:32;95469.63;;;0.05;83.18
47763;BME280;33526;42.690;23.322;2023-03-18T06:05:58;95467.22;;;-0.15;84.35
47763;BME280;33526;42.690;23.322;2023-03-18T06:08:24;95469.56;;;-0.28;85.36
47763;BME280;33526;42.690;23.322;2023-03-18T06:10:50;95459.75;;;-0.32;85.85
47763;BME280;33526;42.690;23.322;2023-03-18T06:13:15;95471.53;;;-0.28;86.39
47763;BME280;33526;42.690;23.322;2023-03-18T06:15:41;95463.31;;;-0.21;85.90
47763;BME280;33526;42.690;23.322;2023-03-18T06:18:06;95468.03;;;-0.11;85.57
47763;BME280;33526;42.690;23.322;2023-03-18T06:20:33;95465.69;;;-0.02;85.20
47763;BME280;33526;42.690;23.322;2023-03-18T06:22:59;95462.56;;;0.25;84.53
47763;BME280;33526;42.690;23.322;2023-03-18T06:25:24;95464.94;;;0.52;83.21
47763;BME280;33526;42.690;23.322;2023-03-18T06:27:50;95458.63;;;0.76;81.95
47763;BME280;33526;42.690;23.322;2023-03-18T06:30:16;95462.13;;;1.06;80.58
47763;BME280;33526;42.690;23.322;2023-03-18T06:32:42;95453.81;;;1.17;79.49
47763;BME280;33526;42.690;23.322;2023-03-18T06:35:08;95458.16;;;1.14;78.95
47763;BME280;33526;42.690;23.322;2023-03-18T06:37:34;95456.53;;;1.31;78.54
47763;BME280;33526;42.690;23.322;2023-03-18T06:39:59;95457.72;;;1.37;77.99
47763;BME280;33526;42.690;23.322;2023-03-18T06:42:25;95448.69;;;1.19;79.00
47763;BME280;33526;42.690;23.322;2023-03-18T06:44:58;95442.81;;;1.17;78.70
47763;BME280;33526;42.690;23.322;2023-03-18T06:47:24;95443.56;;;1.31;79.10
47763;BME280;33526;42.690;23.322;2023-03-18T06:49:49;95443.56;;;1.28;79.66
47763;BME280;33526;42.690;23.322;2023-03-18T06:52:15;95453.78;;;1.31;79.06
47763;BME280;33526;42.690;23.322;2023-03-18T06:54:41;95446.28;;;1.35;78.78
47763;BME280;33526;42.690;23.322;2023-03-18T06:57:07;95452.16;;;1.48;78.58
47763;BME280;33526;42.690;23.322;2023-03-18T06:59:32;95442.97;;;1.72;78.56
47763;BME280;33526;42.690;23.322;2023-03-18T07:02:00;95446.13;;;1.71;78.34
47763;BME280;33526;42.690;23.322;2023-03-18T07:04:25;95449.34;;;1.59;78.53
47763;BME280;33526;42.690;23.322;2023-03-18T07:06:50;95445.13;;;1.25;78.94
47763;BME280;33526;42.690;23.322;2023-03-18T07:09:17;95439.97;;;1.38;79.61
47763;BME280;33526;42.690;23.322;2023-03-18T07:11:43;95447.38;;;1.56;79.31
47763;BME280;33526;42.690;23.322;2023-03-18T07:14:09;95442.97;;;1.69;78.64
47763;BME280;33526;42.690;23.322;2023-03-18T07:16:35;95444.06;;;1.89;78.45
47763;BME280;33526;42.690;23.322;2023-03-18T07:19:01;95445.56;;;1.98;77.59
47763;BME280;33526;42.690;23.322;2023-03-18T07:21:26;95442.09;;;1.90;77.26
47763;BME280;33526;42.690;23.322;2023-03-18T07:23:53;95448.97;;;1.49;77.73
47763;BME280;33526;42.690;23.322;2023-03-18T07:26:19;95443.50;;;1.39;79.07
47763;BME280;33526;42.690;23.322;2023-03-18T07:28:44;95445.13;;;1.29;79.91
47763;BME280;33526;42.690;23.322;2023-03-18T07:31:10;95448.31;;;1.17;81.04
47763;BME280;33526;42.690;23.322;2023-03-18T07:33:35;95458.88;;;1.36;80.54
47763;BME280;33526;42.690;23.322;2023-03-18T07:36:01;95448.94;;;1.57;80.56
47763;BME280;33526;42.690;23.322;2023-03-18T07:38:26;95454.84;;;1.62;80.21
47763;BME280;33526;42.690;23.322;2023-03-18T07:40:51;95456.88;;;1.44;80.73
47763;BME280;33526;42.690;23.322;2023-03-18T07:43:16;95446.63;;;1.48;80.19
47763;BME280;33526;42.690;23.322;2023-03-18T07:45:42;95453.59;;;1.74;80.05
47763;BME280;33526;42.690;23.322;2023-03-18T07:48:08;95443.22;;;1.92;79.07
47763;BME280;33526;42.690;23.322;2023-03-18T07:50:33;95451.31;;;2.21;79.27
47763;BME280;33526;42.690;23.322;2023-03-18T07:52:59;95451.50;;;2.52;77.67
47763;BME280;33526;42.690;23.322;2023-03-18T07:55:24;95449.50;;;2.56;76.35
47763;BME280;33526;42.690;23.322;2023-03-18T07:57:49;95453.16;;;2.87;75.99
47763;BME280;33526;42.690;23.322;2023-03-18T08:00:15;95451.41;;;3.08;74.69
47763;BME280;33526;42.690;23.322;2023-03-18T08:02:40;95448.59;;;3.12;74.18
47763;BME280;33526;42.690;23.322;2023-03-18T08:05:06;95441.41;;;3.18;74.02
47763;BME280;33526;42.690;23.322;2023-03-18T08:07:32;95440.94;;;3.27;73.43
47763;BME280;33526;42.690;23.322;2023-03-18T08:09:57;95441.25;;;3.32;73.51
47763;BME280;33526;42.690;23.322;2023-03-18T08:12:23;95429.56;;;3.52;72.55
47763;BME280;33526;42.690;23.322;2023-03-18T08:14:49;95439.97;;;3.75;72.08
47763;BME280;33526;42.690;23.322;2023-03-18T08:17:14;95443.41;;;3.82;70.80
47763;BME280;33526;42.690;23.322;2023-03-18T08:19:40;95442.22;;;3.83;70.77
47763;BME280;33526;42.690;23.322;2023-03-18T08:22:05;95448.75;;;3.97;70.03
47763;BME280;33526;42.690;23.322;2023-03-18T08:24:32;95455.91;;;3.60;70.95
47763;BME280;33526;42.690;23.322;2023-03-18T08:26:57;95446.81;;;3.63;71.07
47763;BME280;33526;42.690;23.322;2023-03-18T08:29:23;95442.06;;;3.63;71.97
47763;BME280;33526;42.690;23.322;2023-03-18T08:31:48;95444.69;;;3.74;71.50
47763;BME280;33526;42.690;23.322;2023-03-18T08:34:13;95435.09;;;3.82;70.71
47763;BME280;33526;42.690;23.322;2023-03-18T08:36:39;95441.91;;;4.05;69.99
47763;BME280;33526;42.690;23.322;2023-03-18T08:39:05;95441.22;;;4.25;69.44
47763;BME280;33526;42.690;23.322;2023-03-18T08:41:31;95443.53;;;4.53;69.22
47763;BME280;33526;42.690;23.322;2023-03-18T08:43:57;95438.63;;;4.65;67.52
47763;BME280;33526;42.690;23.322;2023-03-18T08:46:23;95438.75;;;4.81;67.28
47763;BME280;33526;42.690;23.322;2023-03-18T08:48:48;95433.56;;;4.83;67.10
47763;BME280;33526;42.690;23.322;2023-03-18T08:51:13;95437.72;;;4.71;65.73
47763;BME280;33526;42.690;23.322;2023-03-18T08:53:40;95445.13;;;4.78;65.56
47763;BME280;33526;42.690;23.322;2023-03-18T08:56:06;95447.44;;;4.59;66.72
47763;BME280;33526;42.690;23.322;2023-03-18T08:58:32;95437.75;;;4.91;66.41
47763;BME280;33526;42.690;23.322;2023-03-18T09:00:58;95437.97;;;5.04;65.38
47763;BME280;33526;42.690;23.322;2023-03-18T09:03:24;95442.44;;;5.18;64.84
47763;BME280;33526;42.690;23.322;2023-03-18T09:05:50;95446.03;;;5.39;62.79
47763;BME280;33526;42.690;23.322;2023-03-18T09:08:17;95442.03;;;5.80;63.31
47763;BME280;33526;42.690;23.322;2023-03-18T09:10:45;95441.16;;;6.03;60.58
47763;BME280;33526;42.690;23.322;2023-03-18T09:13:11;95448.41;;;6.17;59.44
47763;BME280;33526;42.690;23.322;2023-03-18T09:15:37;95452.13;;;5.90;59.49
47763;BME280;33526;42.690;23.322;2023-03-18T09:18:03;95446.88;;;5.75;59.38
47763;BME280;33526;42.690;23.322;2023-03-18T09:20:29;95444.94;;;6.12;59.41
47763;BME280;33526;42.690;23.322;2023-03-18T09:22:54;95456.41;;;6.31;58.29
47763;BME280;33526;42.690;23.322;2023-03-18T09:25:20;95452.13;;;6.46;56.94
47763;BME280;33526;42.690;23.322;2023-03-18T09:27:45;95452.81;;;6.67;56.00
47763;BME280;33526;42.690;23.322;2023-03-18T09:30:11;95450.03;;;6.83;55.00
47763;BME280;33526;42.690;23.322;2023-03-18T09:32:36;95452.78;;;7.00;53.42
47763;BME280;33526;42.690;23.322;2023-03-18T09:35:03;95446.28;;;7.06;53.48
47763;BME280;33526;42.690;23.322;2023-03-18T09:37:28;95451.16;;;7.02;52.53
47763;BME280;33526;42.690;23.322;2023-03-18T09:39:54;95453.84;;;6.73;53.77
47763;BME280;33526;42.690;23.322;2023-03-18T09:44:53;95452.13;;;6.46;54.43
47763;BME280;33526;42.690;23.322;2023-03-18T09:52:40;95443.06;;;7.08;53.10
47763;BME280;33526;42.690;23.322;2023-03-18T09:57:47;95437.31;;;7.15;52.84
47763;BME280;33526;42.690;23.322;2023-03-18T10:00:33;95440.81;;;7.03;52.90
47763;BME280;33526;42.690;23.322;2023-03-18T10:03:02;95436.84;;;7.33;52.74
47763;BME280;33526;42.690;23.322;2023-03-18T10:05:30;95428.00;;;7.51;51.04
47763;BME280;33526;42.690;23.322;2023-03-18T10:07:59;95434.72;;;7.66;50.59
47763;BME280;33526;42.690;23.322;2023-03-18T10:10:36;95435.94;;;7.65;50.15
47763;BME280;33526;42.690;23.322;2023-03-18T10:14:07;95435.00;;;7.85;50.98
47763;BME280;33526;42.690;23.322;2023-03-18T10:15:57;95431.75;;;7.87;50.77
47763;BME280;33526;42.690;23.322;2023-03-18T10:18:26;95433.25;;;8.04;50.21
47763;BME280;33526;42.690;23.322;2023-03-18T10:51:31;95417.63;;;8.96;42.88
47763;BME280;33526;42.690;23.322;2023-03-18T10:54:07;95417.28;;;9.42;42.35
47763;BME280;33526;42.690;23.322;2023-03-18T10:56:44;95418.84;;;9.65;40.33
47763;BME280;33526;42.690;23.322;2023-03-18T10:59:38;95417.19;;;9.77;40.47
47763;BME280;33526;42.690;23.322;2023-03-18T11:02:33;95413.44;;;9.71;39.73
47763;BME280;33526;42.690;23.322;2023-03-18T11:08:00;95411.38;;;7.90;46.10
47763;BME280;33526;42.690;23.322;2023-03-18T11:10:28;95428.28;;;7.70;46.33
47763;BME280;33526;42.690;23.322;2023-03-18T11:12:59;95419.72;;;7.35;46.94
47763;BME280;33526;42.690;23.322;2023-03-18T11:16:08;95422.69;;;7.27;47.46
47763;BME280;33526;42.690;23.322;2023-03-18T11:18:49;95417.81;;;7.32;47.15
47763;BME280;33526;42.690;23.322;2023-03-18T11:21:24;95418.34;;;7.26;46.50
47763;BME280;33526;42.690;23.322;2023-03-18T11:23:59;95415.25;;;7.08;46.41
47763;BME280;33526;42.690;23.322;2023-03-18T11:43:19;95398.94;;;8.71;41.76
47763;BME280;33526;42.690;23.322;2023-03-18T11:54:16;95407.41;;;8.68;40.70
47763;BME280;33526;42.690;23.322;2023-03-18T11:56:53;95408.88;;;8.72;40.95
47763;BME280;33526;42.690;23.322;2023-03-18T11:59:35;95404.53;;;8.58;40.28
47763;BME280;33526;42.690;23.322;2023-03-18T12:02:29;95406.63;;;8.41;41.34
47763;BME280;33526;42.690;23.322;2023-03-18T12:10:35;95410.88;;;8.33;42.34
47763;BME280;33526;42.690;23.322;2023-03-18T12:28:33;95406.41;;;8.74;39.70
47763;BME280;33526;42.690;23.322;2023-03-18T12:31:22;95391.09;;;8.92;40.28
47763;BME280;33526;42.690;23.322;2023-03-18T12:44:49;95386.16;;;9.31;40.23
47763;BME280;33526;42.690;23.322;2023-03-18T12:49:59;95388.50;;;9.32;39.73
47763;BME280;33526;42.690;23.322;2023-03-18T12:52:47;95389.28;;;9.33;39.55
47763;BME280;33526;42.690;23.322;2023-03-18T12:55:16;95386.69;;;9.16;39.93
47763;BME280;33526;42.690;23.322;2023-03-18T12:57:51;95399.50;;;9.14;38.83
47763;BME280;33526;42.690;23.322;2023-03-18T13:00:20;95387.31;;;9.21;38.53
47763;BME280;33526;42.690;23.322;2023-03-18T13:02:58;95390.63;;;9.28;38.64
47763;BME280;33526;42.690;23.322;2023-03-18T13:08:04;95391.97;;;9.24;38.04
47763;BME280;33526;42.690;23.322;2023-03-18T13:10:32;95386.94;;;9.31;38.25
47763;BME280;33526;42.690;23.322;2023-03-18T13:12:59;95382.75;;;9.14;38.56
47763;BME280;33526;42.690;23.322;2023-03-18T13:15:29;95383.38;;;8.96;38.56
47763;BME280;33526;42.690;23.322;2023-03-18T13:17:58;95385.75;;;9.19;38.38
47763;BME280;33526;42.690;23.322;2023-03-18T13:20:26;95387.94;;;9.03;37.78
47763;BME280;33526;42.690;23.322;2023-03-18T13:25:38;95394.28;;;9.03;37.44
47763;BME280;33526;42.690;23.322;2023-03-18T13:31:09;95384.22;;;9.41;36.75
47763;BME280;33526;42.690;23.322;2023-03-18T13:33:46;95387.41;;;9.52;37.69
47763;BME280;33526;42.690;23.322;2023-03-18T13:44:38;95385.88;;;10.04;35.29
47763;BME280;33526;42.690;23.322;2023-03-18T13:47:06;95389.28;;;9.77;36.04
47763;BME280;33526;42.690;23.322;2023-03-18T13:49:33;95373.56;;;9.92;36.08
47763;BME280;33526;42.690;23.322;2023-03-18T13:51:59;95375.84;;;9.41;36.22
47763;BME280;33526;42.690;23.322;2023-03-18T13:54:31;95374.63;;;9.64;36.36
47763;BME280;33526;42.690;23.322;2023-03-18T13:57:14;95374.47;;;9.45;36.19
47763;BME280;33526;42.690;23.322;2023-03-18T14:04:50;95361.72;;;9.00;37.78
47763;BME280;33526;42.690;23.322;2023-03-18T14:07:19;95365.88;;;8.95;37.46
47763;BME280;33526;42.690;23.322;2023-03-18T14:09:49;95363.53;;;8.94;37.92
47763;BME280;33526;42.690;23.322;2023-03-18T14:12:36;95360.19;;;8.99;37.54
47763;BME280;33526;42.690;23.322;2023-03-18T14:22:35;95371.88;;;8.59;37.54
47763;BME280;33526;42.690;23.322;2023-03-18T14:25:08;95372.72;;;8.82;37.66
47763;BME280;33526;42.690;23.322;2023-03-18T14:27:54;95378.44;;;9.00;36.89
47763;BME280;33526;42.690;23.322;2023-03-18T14:30:26;95381.22;;;9.13;36.55
47763;BME280;33526;42.690;23.322;2023-03-18T14:32:55;95368.63;;;9.08;37.20
47763;BME280;33526;42.690;23.322;2023-03-18T14:37:59;95366.47;;;9.12;35.91
47763;BME280;33526;42.690;23.322;2023-03-18T14:40:27;95365.00;;;9.21;36.81
47763;BME280;33526;42.690;23.322;2023-03-18T14:43:00;95360.31;;;9.17;36.07
47763;BME280;33526;42.690;23.322;2023-03-18T14:45:29;95362.16;;;9.11;36.24
47763;BME280;33526;42.690;23.322;2023-03-18T14:47:55;95370.84;;;9.13;36.40
47763;BME280;33526;42.690;23.322;2023-03-18T14:53:01;95363.28;;;9.01;35.85
47763;BME280;33526;42.690;23.322;2023-03-18T14:55:29;95378.09;;;9.11;36.22
47763;BME280;33526;42.690;23.322;2023-03-18T14:57:56;95369.28;;;9.12;36.12
47763;BME280;33526;42.690;23.322;2023-03-18T15:00:22;95372.97;;;9.09;36.74
47763;BME280;33526;42.690;23.322;2023-03-18T15:02:51;95382.00;;;9.13;36.03
47763;BME280;33526;42.690;23.322;2023-03-18T15:05:22;95376.13;;;8.98;36.38
47763;BME280;33526;42.690;23.322;2023-03-18T15:07:50;95371.00;;;8.97;36.89
47763;BME280;33526;42.690;23.322;2023-03-18T15:10:26;95378.44;;;9.00;36.98
47763;BME280;33526;42.690;23.322;2023-03-18T15:15:24;95379.63;;;8.90;37.64
47763;BME280;33526;42.690;23.322;2023-03-18T15:17:49;95370.25;;;8.84;37.31
47763;BME280;33526;42.690;23.322;2023-03-18T15:20:37;95383.81;;;8.59;38.15
47763;BME280;33526;42.690;23.322;2023-03-18T15:23:12;95388.25;;;8.57;37.90
47763;BME280;33526;42.690;23.322;2023-03-18T15:25:38;95391.84;;;8.57;38.21
47763;BME280;33526;42.690;23.322;2023-03-18T15:28:05;95396.06;;;8.49;37.93
47763;BME280;33526;42.690;23.322;2023-03-18T15:30:31;95399.16;;;8.38;37.88
47763;BME280;33526;42.690;23.322;2023-03-18T15:33:02;95409.53;;;8.25;38.11